createdAt,value
2022-12-29T00:03:30.194Z,44.16
2022-12-29T00:08:41.702Z,44.40
2022-12-29T00:14:02.971Z,43.86
2022-12-29T00:19:05.787Z,43.88
2022-12-29T00:24:29.373Z,43.56
2022-12-29T00:29:50.076Z,43.56
2022-12-29T00:35:09.893Z,43.66
2022-12-29T00:40:30.645Z,43.57
2022-12-29T00:45:32.352Z,43.54
2022-12-29T00:50:34.263Z,44.47
2022-12-29T00:55:41.442Z,45.35
2022-12-29T01:00:43.275Z,46.53
2022-12-29T01:05:45.289Z,47.35
2022-12-29T01:10:59.175Z,48.83
2022-12-29T01:16:01.049Z,49.86
2022-12-29T01:21:06.236Z,50.42
2022-12-29T01:26:17.153Z,50.73
2022-12-29T01:31:20.174Z,51.24
2022-12-29T01:36:22.104Z,51.56
2022-12-29T01:41:24.609Z,51.89
2022-12-29T01:46:39.906Z,51.94
2022-12-29T01:51:53.561Z,52.26
2022-12-29T01:56:58.688Z,52.73
2022-12-29T02:02:01.807Z,52.72
2022-12-29T02:07:14.716Z,53.06
2022-12-29T02:12:19.152Z,53.20
2022-12-29T02:17:29.931Z,53.22
2022-12-29T02:22:51.656Z,52.96
2022-12-29T02:27:59.368Z,52.88
2022-12-29T02:33:32.228Z,52.53
2022-12-29T02:38:52.797Z,52.34
2022-12-29T02:44:01.167Z,52.32
2022-12-29T02:49:27.499Z,52.01
2022-12-29T02:54:44.505Z,51.49
2022-12-29T02:59:57.698Z,51.13
2022-12-29T03:05:06.059Z,50.78
2022-12-29T03:10:31.546Z,50.59
2022-12-29T03:16:02.451Z,50.19
2022-12-29T03:21:15.674Z,49.82
2022-12-29T03:26:21.331Z,49.25
2022-12-29T03:31:25.788Z,49.06
2022-12-29T03:36:37.829Z,48.94
2022-12-29T03:41:45.695Z,48.64
2022-12-29T03:46:48.345Z,48.77
2022-12-29T03:51:51.981Z,48.42
2022-12-29T03:56:54.781Z,48.47
2022-12-29T04:02:08.341Z,48.36
2022-12-29T04:07:10.376Z,48.62
2022-12-29T04:12:12.392Z,48.59
2022-12-29T04:17:14.363Z,48.59
2022-12-29T04:22:17.813Z,48.74
2022-12-29T04:27:20.756Z,48.77
2022-12-29T04:32:43.341Z,48.79
2022-12-29T04:37:45.292Z,49.03
2022-12-29T04:42:47.359Z,49.15
2022-12-29T04:47:49.371Z,49.19
2022-12-29T04:53:10.062Z,48.97
2022-12-29T04:58:16.327Z,49.29
2022-12-29T05:03:23.315Z,50.09
2022-12-29T05:08:28.343Z,51.15
2022-12-29T05:13:33.230Z,51.77
2022-12-29T05:18:35.872Z,51.73
2022-12-29T05:23:39.033Z,51.99
2022-12-29T05:28:41.893Z,51.83
2022-12-29T05:33:48.157Z,51.83
2022-12-29T05:38:50.222Z,51.91
2022-12-29T05:43:53.186Z,51.66
2022-12-29T05:49:07.419Z,51.68
2022-12-29T05:54:33.846Z,51.41
2022-12-29T05:59:37.281Z,51.40
2022-12-29T06:04:40.035Z,51.35
2022-12-29T06:09:43.224Z,51.60
2022-12-29T06:14:45.855Z,51.55
2022-12-29T06:19:47.718Z,51.42
2022-12-29T06:24:49.564Z,51.06
2022-12-29T06:29:51.526Z,50.82
2022-12-29T06:34:53.525Z,50.55
2022-12-29T06:39:55.461Z,49.97
2022-12-29T06:45:01.800Z,50.16
2022-12-29T06:50:04.408Z,49.93
2022-12-29T06:55:06.798Z,49.97
2022-12-29T07:00:09.890Z,49.81
2022-12-29T07:05:11.920Z,49.95
2022-12-29T07:10:13.858Z,49.94
2022-12-29T07:15:15.937Z,50.07
2022-12-29T07:20:24.747Z,50.03
2022-12-29T07:25:30.387Z,49.88
2022-12-29T07:30:32.888Z,50.14
2022-12-29T07:35:36.160Z,50.50
2022-12-29T07:40:38.609Z,50.42
2022-12-29T07:45:41.085Z,50.51
2022-12-29T07:50:46.716Z,48.89
2022-12-29T07:55:49.055Z,48.64
2022-12-29T08:00:55.964Z,48.80
2022-12-29T08:05:58.431Z,48.66
2022-12-29T08:11:00.990Z,49.07
2022-12-29T08:16:03.664Z,48.85
2022-12-29T08:21:07.017Z,49.05
2022-12-29T08:26:09.713Z,48.51
2022-12-29T08:31:12.554Z,47.16
2022-12-29T08:36:15.297Z,46.32
2022-12-29T08:41:17.604Z,45.74
2022-12-29T08:46:20.976Z,45.11
2022-12-29T08:51:25.097Z,45.76
2022-12-29T08:56:28.968Z,44.97
2022-12-29T09:01:35.177Z,45.93
2022-12-29T09:06:40.463Z,45.25
2022-12-29T09:11:44.836Z,45.73
2022-12-29T09:17:05.407Z,45.58
2022-12-29T09:22:07.437Z,45.48
2022-12-29T09:27:09.269Z,45.51
2022-12-29T09:32:17.122Z,46.38
2022-12-29T09:37:20.396Z,46.64
2022-12-29T09:43:08.157Z,45.68
2022-12-29T09:48:20.842Z,44.98
2022-12-29T09:53:26.252Z,44.95
2022-12-29T09:58:36.541Z,44.39
2022-12-29T10:03:52.471Z,44.55
2022-12-29T10:09:05.760Z,44.42
2022-12-29T10:14:29.084Z,44.15
2022-12-29T10:19:39.861Z,43.82
2022-12-29T10:24:45.968Z,43.45
2022-12-29T10:29:57.153Z,43.43
2022-12-29T10:35:11.156Z,43.20
2022-12-29T10:40:23.051Z,43.19
2022-12-29T10:45:30.737Z,43.06
2022-12-29T10:50:33.156Z,43.59
2022-12-29T10:55:37.684Z,43.36
2022-12-29T11:00:39.678Z,43.50
2022-12-29T11:05:53.378Z,43.26
2022-12-29T11:11:01.556Z,43.60
2022-12-29T11:16:04.104Z,43.40
2022-12-29T11:21:32.977Z,42.85
2022-12-29T11:26:35.357Z,42.87
2022-12-29T11:31:44.133Z,42.62
2022-12-29T11:36:47.193Z,42.50
2022-12-29T11:41:53.927Z,42.45
2022-12-29T11:46:56.846Z,42.35
2022-12-29T11:51:58.968Z,42.39
2022-12-29T11:57:15.724Z,42.62
2022-12-29T12:02:43.070Z,42.54
2022-12-29T12:07:55.351Z,42.42
2022-12-29T12:13:12.002Z,42.21
2022-12-29T12:18:48.685Z,42.46
2022-12-29T12:24:08.768Z,42.16
2022-12-29T12:29:22.247Z,42.26
2022-12-29T12:34:31.567Z,42.09
2022-12-29T12:39:45.372Z,42.13
2022-12-29T12:45:05.448Z,42.04
2022-12-29T12:50:17.926Z,42.29
2022-12-29T12:55:44.874Z,41.81
2022-12-29T13:00:56.046Z,41.13
2022-12-29T13:06:07.134Z,39.63
2022-12-29T13:11:40.063Z,39.32
2022-12-29T13:16:44.554Z,36.32
2022-12-29T13:22:19.312Z,33.63
2022-12-29T13:27:42.771Z,32.92
2022-12-29T13:32:58.137Z,34.98
2022-12-29T13:38:12.300Z,36.83
2022-12-29T13:43:17.050Z,38.35
2022-12-29T13:48:24.887Z,38.89
2022-12-29T13:53:39.904Z,39.67
2022-12-29T13:58:50.846Z,40.17
2022-12-29T14:03:56.421Z,40.57
2022-12-29T14:09:00.053Z,40.95
2022-12-29T14:14:21.399Z,41.17
2022-12-29T14:19:37.251Z,41.24
2022-12-29T14:24:44.593Z,41.65
2022-12-29T14:29:48.475Z,41.40
2022-12-29T14:34:52.829Z,41.73
2022-12-29T14:40:16.491Z,41.69
2022-12-29T14:45:18.324Z,41.96
2022-12-29T14:50:31.702Z,41.92
2022-12-29T14:55:47.492Z,41.99
2022-12-29T15:00:50.478Z,41.89
2022-12-29T15:06:14.837Z,41.92
2022-12-29T15:11:21.476Z,42.08
2022-12-29T15:16:27.497Z,41.96
2022-12-29T15:21:34.940Z,42.32
2022-12-29T15:26:42.180Z,42.63
2022-12-29T15:31:49.395Z,42.62
2022-12-29T15:36:52.116Z,43.13
2022-12-29T15:42:00.867Z,42.48
2022-12-29T15:47:07.986Z,42.32
2022-12-29T15:52:10.777Z,42.63
2022-12-29T15:57:22.411Z,42.16
2022-12-29T16:02:25.837Z,42.44
2022-12-29T16:07:37.347Z,42.60
2022-12-29T16:12:43.012Z,42.77
2022-12-29T16:17:51.732Z,43.11
2022-12-29T16:22:57.122Z,43.23
2022-12-29T16:28:16.785Z,43.38
2022-12-29T16:33:41.274Z,43.22
2022-12-29T16:38:43.655Z,43.80
2022-12-29T16:43:45.654Z,43.83
2022-12-29T16:48:55.465Z,44.33
2022-12-29T16:53:58.740Z,44.08
2022-12-29T16:59:10.017Z,44.19
2022-12-29T17:04:14.470Z,44.87
2022-12-29T17:09:26.584Z,44.85
2022-12-29T17:14:43.347Z,45.02
2022-12-29T17:19:54.748Z,44.95
2022-12-29T17:24:59.192Z,45.17
2022-12-29T17:30:14.009Z,45.66
2022-12-29T17:35:20.533Z,45.56
2022-12-29T17:40:27.160Z,45.79
2022-12-29T17:45:31.366Z,45.73
2022-12-29T17:50:33.446Z,45.71
2022-12-29T17:55:38.256Z,45.77
2022-12-29T18:00:40.851Z,45.65
2022-12-29T18:05:43.532Z,45.68
2022-12-29T18:10:46.429Z,45.94
2022-12-29T18:15:48.833Z,46.14
2022-12-29T18:20:55.005Z,46.12
2022-12-29T18:26:13.471Z,46.13
2022-12-29T18:31:24.160Z,46.54
2022-12-29T18:36:27.299Z,47.15
2022-12-29T18:41:30.350Z,47.46
2022-12-29T18:46:32.338Z,47.29
2022-12-29T18:51:34.408Z,47.02
2022-12-29T18:56:36.395Z,47.11
2022-12-29T19:01:38.699Z,47.19
2022-12-29T19:06:40.960Z,47.22
2022-12-29T19:11:43.237Z,47.38
2022-12-29T19:16:45.531Z,47.48
2022-12-29T19:21:47.465Z,47.11
2022-12-29T19:26:49.699Z,47.92
2022-12-29T19:31:51.807Z,47.51
2022-12-29T19:36:53.854Z,47.25
2022-12-29T19:41:59.078Z,47.02
2022-12-29T19:47:04.018Z,46.87
2022-12-29T19:52:06.556Z,46.53
2022-12-29T19:57:08.877Z,46.21
2022-12-29T20:02:33.950Z,45.96
2022-12-29T20:07:36.847Z,45.89
2022-12-29T20:12:38.936Z,45.63
2022-12-29T20:23:03.204Z,45.47
2022-12-29T20:28:05.224Z,45.38
2022-12-29T20:33:08.552Z,45.63
2022-12-29T20:38:10.884Z,45.57
2022-12-29T20:43:14.700Z,45.83
2022-12-29T20:48:16.674Z,45.99
2022-12-29T20:53:18.614Z,46.13
2022-12-29T20:58:24.654Z,46.10
2022-12-29T21:03:26.946Z,46.14
2022-12-29T21:08:32.923Z,46.33
2022-12-29T21:13:35.500Z,46.82
2022-12-29T21:18:37.392Z,46.64
2022-12-29T21:23:40.152Z,46.75
2022-12-29T21:28:43.598Z,46.67
2022-12-29T21:33:45.497Z,46.85
2022-12-29T21:38:47.892Z,47.19
2022-12-29T21:44:09.138Z,47.54
2022-12-29T21:49:11.381Z,47.84
2022-12-29T21:54:31.974Z,47.96
2022-12-29T21:59:52.172Z,47.81
2022-12-29T22:05:12.488Z,48.05
2022-12-29T22:10:33.146Z,48.43
2022-12-29T22:15:36.078Z,48.61
2022-12-29T22:20:37.973Z,49.18
2022-12-29T22:25:40.850Z,49.01
2022-12-29T22:30:42.729Z,48.81
2022-12-29T22:35:45.012Z,49.23
2022-12-29T22:40:46.840Z,48.97
2022-12-29T22:45:48.709Z,49.22
2022-12-29T22:50:55.427Z,49.48
2022-12-29T22:56:11.432Z,49.23
2022-12-29T23:01:16.202Z,49.19
2022-12-29T23:06:18.167Z,48.78
2022-12-29T23:11:19.985Z,48.78
2022-12-29T23:16:22.122Z,48.66
2022-12-29T23:21:24.199Z,48.85
2022-12-29T23:26:28.368Z,48.73
2022-12-29T23:31:31.213Z,48.97
2022-12-29T23:36:34.067Z,48.74
2022-12-29T23:41:36.012Z,48.60
2022-12-29T23:46:37.942Z,48.28
2022-12-29T23:51:40.063Z,48.42
2022-12-29T23:56:41.884Z,48.94
